Time;durP1;ratioP1;P1;durP2;ratioP2;P2;SDS_P1;SDS_P2;PMS_P1;PMS_P2;Temp;Humidity;BMP_temperature;BMP_pressure;BME280_temperature;BME280_humidity;BME280_pressure;Samples;Min_cycle;Max_cycle;Signal;HPM_P1;HPM_P2
2021/12/13 00:02:01;;;;;;;;;;;10.30;99.90;;;;;;5103181;28;19924;-78
2021/12/13 00:04:30;;;;;;;;;;;10.30;99.90;;;;;;5111580;28;19923;-75
2021/12/13 00:06:58;;;;;;;;;;;10.30;99.90;;;;;;5097742;28;20014;-75
2021/12/13 00:09:25;;;;;;;;;;;10.30;99.90;;;;;;5101805;28;19943;-76
2021/12/13 00:11:53;;;;;;;;;;;10.30;99.90;;;;;;5082770;28;19924;-75
2021/12/13 00:14:21;;;;;;;;;;;10.30;99.90;;;;;;5111867;28;19939;-76
2021/12/13 00:16:48;;;;;;;;;;;10.30;99.90;;;;;;5105735;28;19958;-75
2021/12/13 00:19:16;;;;;;;;;;;10.30;99.90;;;;;;5112924;28;19934;-80
2021/12/13 00:21:47;;;;;;;;;;;10.30;99.90;;;;;;5094854;28;20300;-75
2021/12/13 00:24:20;;;;;;;;;;;10.30;99.90;;;;;;5094009;28;20007;-75
2021/12/13 00:26:47;;;;;;;;;;;10.30;99.90;;;;;;5100114;28;20490;-75
2021/12/13 00:29:15;;;;;;;;;;;10.20;99.90;;;;;;5082698;28;19932;-75
2021/12/13 00:31:50;;;;;;;;;;;10.30;99.90;;;;;;5104019;28;20009;-75
2021/12/13 00:34:34;;;;;;;;;;;10.30;99.90;;;;;;5110880;28;19980;-79
2021/12/13 00:37:08;;;;;;;;;;;10.30;99.90;;;;;;5097609;28;19928;-76
2021/12/13 00:39:45;;;;;;;;;;;10.30;99.90;;;;;;5089236;28;19935;-75
2021/12/13 00:42:12;;;;;;;;;;;10.30;99.90;;;;;;5104594;28;20027;-75
2021/12/13 00:44:44;;;;;;;;;;;10.30;99.90;;;;;;5114314;27;19930;-77
2021/12/13 00:47:15;;;;;;;;;;;10.30;99.90;;;;;;5102184;27;19995;-79
2021/12/13 00:49:45;;;;;;;;;;;10.30;99.90;;;;;;5118076;27;19923;-75
2021/12/13 00:52:14;;;;;;;;;;;10.30;99.90;;;;;;5111398;28;19975;-76
2021/12/13 00:54:40;;;;;;;;;;;10.30;99.90;;;;;;5096356;28;20288;-77
2021/12/13 00:57:18;;;;;;;;;;;10.30;99.90;;;;;;5096391;28;19924;-75
2021/12/13 00:59:49;;;;;;;;;;;10.30;99.90;;;;;;5122620;27;20027;-75
2021/12/13 01:02:19;;;;;;;;;;;10.30;99.90;;;;;;5080636;27;19927;-75
2021/12/13 01:05:00;;;;;;;;;;;10.30;99.90;;;;;;5097542;28;20014;-76
2021/12/13 01:07:44;;;;;;;;;;;10.30;99.90;;;;;;5076231;28;19973;-75
2021/12/13 01:10:29;;;;;;;;;;;10.30;99.90;;;;;;5110245;27;20014;-75
2021/12/13 01:12:56;;;;;;;;;;;10.30;99.90;;;;;;5126592;27;19932;-82
2021/12/13 01:15:53;;;;;;;;;;;10.30;99.90;;;;;;5106705;28;19923;-75
2021/12/13 01:18:36;;;;;;;;;;;10.30;99.90;;;;;;5079320;27;19932;-75
2021/12/13 01:21:29;;;;;;;;;;;10.30;99.90;;;;;;5110845;27;19973;-75
2021/12/13 01:24:04;;;;;;;;;;;10.40;99.90;;;;;;5107106;28;20012;-77
2021/12/13 01:26:37;;;;;;;;;;;10.30;99.90;;;;;;5115078;27;19932;-76
2021/12/13 01:29:10;;;;;;;;;;;10.30;99.90;;;;;;5108050;27;19931;-77
2021/12/13 01:31:41;;;;;;;;;;;10.30;99.90;;;;;;5114996;27;19923;-75
2021/12/13 01:34:08;;;;;;;;;;;10.30;99.90;;;;;;5090802;27;20357;-75
2021/12/13 01:36:42;;;;;;;;;;;10.40;99.90;;;;;;5097069;28;19927;-76
2021/12/13 01:39:11;;;;;;;;;;;10.30;99.90;;;;;;5087525;27;19927;-75
2021/12/13 01:41:41;;;;;;;;;;;10.30;99.90;;;;;;5115534;27;19923;-78
2021/12/13 01:44:09;;;;;;;;;;;10.30;99.90;;;;;;5109321;27;19924;-75
2021/12/13 01:46:36;;;;;;;;;;;10.30;99.90;;;;;;5112184;27;20006;-75
2021/12/13 01:49:02;;;;;;;;;;;10.30;99.90;;;;;;5110520;27;20383;-75
2021/12/13 01:51:33;;;;;;;;;;;10.30;99.90;;;;;;5112632;27;19934;-75
2021/12/13 01:54:00;;;;;;;;;;;10.30;99.90;;;;;;5101901;28;20458;-83
2021/12/13 01:56:43;;;;;;;;;;;10.30;99.90;;;;;;5095650;28;19924;-75
2021/12/13 02:00:08;;;;;;;;;;;10.30;99.90;;;;;;5106276;27;19967;-78
2021/12/13 02:02:08;;;;;;;;;;;10.30;99.90;;;;;;5076232;28;20377;-78
2021/12/13 02:04:34;;;;;;;;;;;10.30;99.90;;;;;;5116979;27;19928;-77
2021/12/13 02:07:02;;;;;;;;;;;10.30;99.90;;;;;;5075181;28;20392;-76
2021/12/13 02:09:36;;;;;;;;;;;10.30;99.90;;;;;;5076190;28;19973;-78
2021/12/13 02:12:05;;;;;;;;;;;10.30;99.90;;;;;;5093857;28;19950;-83
2021/12/13 02:14:33;;;;;;;;;;;10.30;99.90;;;;;;5120817;27;19927;-74
2021/12/13 02:17:12;;;;;;;;;;;10.30;99.90;;;;;;5082642;27;20365;-77
2021/12/13 02:19:41;;;;;;;;;;;10.30;99.90;;;;;;5099194;28;19928;-75
2021/12/13 02:22:22;;;;;;;;;;;10.30;99.90;;;;;;5098025;27;19923;-75
2021/12/13 02:24:48;;;;;;;;;;;10.30;99.90;;;;;;5130070;27;19941;-75
2021/12/13 02:27:14;;;;;;;;;;;10.30;99.90;;;;;;5112853;27;19927;-75
2021/12/13 02:29:42;;;;;;;;;;;10.30;99.90;;;;;;5129293;27;19935;-77
2021/12/13 02:32:09;;;;;;;;;;;10.30;99.90;;;;;;5110579;27;19975;-75
2021/12/13 02:34:35;;;;;;;;;;;10.30;99.90;;;;;;5111974;27;19928;-76
2021/12/13 02:37:01;;;;;;;;;;;10.30;99.90;;;;;;5126090;27;19924;-75
2021/12/13 02:39:29;;;;;;;;;;;10.30;99.90;;;;;;5126631;27;20057;-75
2021/12/13 02:41:55;;;;;;;;;;;10.30;99.90;;;;;;5093806;28;19927;-75
2021/12/13 02:44:38;;;;;;;;;;;10.30;99.90;;;;;;5092686;28;20384;-76
2021/12/13 02:47:14;;;;;;;;;;;10.30;99.90;;;;;;5094903;28;19927;-76
2021/12/13 02:49:40;;;;;;;;;;;10.30;99.90;;;;;;5095853;28;19928;-80
2021/12/13 02:52:07;;;;;;;;;;;10.30;99.90;;;;;;5108951;27;20018;-82
2021/12/13 02:54:36;;;;;;;;;;;10.20;99.90;;;;;;5098659;28;19955;-75
2021/12/13 02:57:31;;;;;;;;;;;10.20;99.90;;;;;;5109010;28;19962;-75
2021/12/13 02:59:59;;;;;;;;;;;10.20;99.90;;;;;;5106474;28;20392;-75
2021/12/13 03:02:37;;;;;;;;;;;10.20;99.90;;;;;;5112238;28;19928;-76
2021/12/13 03:05:03;;;;;;;;;;;10.20;99.90;;;;;;5111352;28;19976;-74
2021/12/13 03:07:31;;;;;;;;;;;10.20;99.90;;;;;;5076218;28;19923;-75
2021/12/13 03:09:58;;;;;;;;;;;10.20;99.90;;;;;;5094497;28;19931;-75
2021/12/13 03:12:25;;;;;;;;;;;10.20;99.90;;;;;;5077408;28;19971;-75
2021/12/13 03:14:52;;;;;;;;;;;10.20;99.90;;;;;;5101104;28;19924;-75
2021/12/13 03:17:24;;;;;;;;;;;10.20;99.90;;;;;;5086445;28;20747;-75
2021/12/13 03:19:56;;;;;;;;;;;10.10;99.90;;;;;;5081892;28;20022;-76
2021/12/13 03:22:24;;;;;;;;;;;10.10;99.90;;;;;;5112000;27;19923;-76
2021/12/13 03:25:02;;;;;;;;;;;10.10;99.90;;;;;;5109176;28;20300;-75
2021/12/13 03:27:27;;;;;;;;;;;10.10;99.90;;;;;;5107535;27;20338;-78
2021/12/13 03:29:53;;;;;;;;;;;10.00;99.90;;;;;;5115696;27;19927;-75
2021/12/13 03:32:19;;;;;;;;;;;10.10;99.90;;;;;;5109651;27;19985;-75
2021/12/13 03:34:54;;;;;;;;;;;10.10;99.90;;;;;;5081679;28;19948;-75
2021/12/13 03:37:22;;;;;;;;;;;10.10;99.90;;;;;;5120543;27;19928;-76
2021/12/13 03:39:49;;;;;;;;;;;10.10;99.90;;;;;;5092261;28;19924;-78
2021/12/13 03:42:28;;;;;;;;;;;10.00;99.90;;;;;;5096843;28;19934;-75
2021/12/13 03:44:56;;;;;;;;;;;10.00;99.90;;;;;;5111011;28;19963;-76
2021/12/13 03:47:36;;;;;;;;;;;10.00;99.90;;;;;;5105548;28;20015;-75
2021/12/13 03:50:06;;;;;;;;;;;10.00;99.90;;;;;;5102259;28;19923;-75
2021/12/13 03:52:31;;;;;;;;;;;10.00;99.90;;;;;;5094266;28;20308;-75
2021/12/13 03:54:59;;;;;;;;;;;10.00;99.90;;;;;;5108306;28;19931;-75
2021/12/13 03:57:25;;;;;;;;;;;10.00;99.90;;;;;;5106806;28;19931;-76
2021/12/13 03:59:51;;;;;;;;;;;9.90;99.90;;;;;;5109846;28;19923;-75
2021/12/13 04:02:31;;;;;;;;;;;9.90;99.90;;;;;;5111018;28;19972;-75
2021/12/13 04:04:59;;;;;;;;;;;9.90;99.90;;;;;;5111848;28;19924;-75
2021/12/13 04:07:28;;;;;;;;;;;9.80;99.90;;;;;;5096592;28;19928;-75
2021/12/13 04:09:55;;;;;;;;;;;9.80;99.90;;;;;;5095174;28;19927;-76
2021/12/13 04:12:31;;;;;;;;;;;9.70;99.90;;;;;;5081927;28;19931;-77
2021/12/13 04:15:02;;;;;;;;;;;9.70;99.90;;;;;;5078750;28;19931;-75
2021/12/13 04:17:43;;;;;;;;;;;9.70;99.90;;;;;;5114158;28;19930;-77
2021/12/13 04:20:35;;;;;;;;;;;9.60;99.90;;;;;;5094947;28;20307;-76
2021/12/13 04:23:09;;;;;;;;;;;9.60;99.90;;;;;;5095021;28;19924;-76
2021/12/13 04:25:37;;;;;;;;;;;9.50;99.90;;;;;;5095705;28;20327;-76
2021/12/13 04:28:06;;;;;;;;;;;9.60;99.90;;;;;;5093645;28;19924;-76
2021/12/13 04:30:46;;;;;;;;;;;9.60;99.90;;;;;;5086418;28;19924;-75
2021/12/13 04:33:23;;;;;;;;;;;9.50;99.90;;;;;;5094727;28;19931;-75
2021/12/13 04:35:50;;;;;;;;;;;9.50;99.90;;;;;;5094444;28;19932;-76
2021/12/13 04:38:21;;;;;;;;;;;9.40;99.90;;;;;;5090692;28;19931;-75
2021/12/13 04:40:47;;;;;;;;;;;9.30;99.90;;;;;;5096612;28;19963;-75
2021/12/13 04:43:14;;;;;;;;;;;9.30;99.90;;;;;;5093634;28;19978;-75
2021/12/13 04:45:47;;;;;;;;;;;9.30;99.90;;;;;;5095797;28;19927;-76
2021/12/13 04:48:15;;;;;;;;;;;9.30;99.90;;;;;;5081086;28;20500;-75
2021/12/13 04:50:50;;;;;;;;;;;9.30;99.90;;;;;;5101366;28;19927;-76
2021/12/13 04:53:18;;;;;;;;;;;9.30;99.90;;;;;;5090480;28;19925;-76
2021/12/13 04:55:44;;;;;;;;;;;9.20;99.90;;;;;;5090517;28;19928;-76
2021/12/13 04:58:10;;;;;;;;;;;9.10;99.90;;;;;;5093330;28;20015;-76
2021/12/13 05:00:38;;;;;;;;;;;9.10;99.90;;;;;;5091766;28;19945;-75
2021/12/13 05:03:05;;;;;;;;;;;9.10;99.90;;;;;;5099227;28;19931;-76
2021/12/13 05:05:31;;;;;;;;;;;9.20;99.90;;;;;;5110015;28;20022;-76
2021/12/13 05:07:57;;;;;;;;;;;9.20;99.90;;;;;;5105301;28;19924;-75
2021/12/13 05:10:25;;;;;;;;;;;9.30;99.90;;;;;;5092425;28;19931;-83
2021/12/13 05:13:23;;;;;;;;;;;9.20;99.90;;;;;;5093603;28;20395;-75
2021/12/13 05:15:55;;;;;;;;;;;9.20;99.90;;;;;;5015856;28;19940;-76
2021/12/13 05:18:24;;;;;;;;;;;9.30;99.90;;;;;;5075074;28;19929;-75
2021/12/13 05:20:56;;;;;;;;;;;9.30;99.90;;;;;;5106451;28;19928;-75
2021/12/13 05:23:23;;;;;;;;;;;9.30;99.90;;;;;;5100881;28;19924;-75
2021/12/13 05:25:50;;;;;;;;;;;9.30;99.90;;;;;;5117845;27;19932;-76
2021/12/13 05:28:21;;;;;;;;;;;9.30;99.90;;;;;;5098958;28;19931;-76
2021/12/13 05:30:57;;;;;;;;;;;9.20;99.90;;;;;;5099369;28;19924;-75
2021/12/13 05:33:24;;;;;;;;;;;9.30;99.90;;;;;;5093555;28;19936;-75
2021/12/13 05:35:51;;;;;;;;;;;9.20;99.90;;;;;;5076801;28;20104;-75
2021/12/13 05:38:23;;;;;;;;;;;9.20;99.90;;;;;;5095578;28;19924;-76
2021/12/13 05:40:49;;;;;;;;;;;9.20;99.90;;;;;;5086454;28;19928;-75
2021/12/13 05:43:18;;;;;;;;;;;9.20;99.90;;;;;;5085620;28;19947;-76
2021/12/13 05:45:48;;;;;;;;;;;9.20;99.90;;;;;;5087251;28;19971;-77
2021/12/13 05:48:22;;;;;;;;;;;9.20;99.90;;;;;;5087952;28;20405;-76
2021/12/13 05:50:57;;;;;;;;;;;9.20;99.90;;;;;;5082516;28;19932;-79
2021/12/13 05:53:24;;;;;;;;;;;9.20;99.90;;;;;;5080449;28;20376;-76
2021/12/13 05:55:53;;;;;;;;;;;9.20;99.90;;;;;;5090526;28;19928;-76
2021/12/13 05:58:30;;;;;;;;;;;9.20;99.90;;;;;;5089326;28;20693;-75
2021/12/13 06:00:58;;;;;;;;;;;9.20;99.90;;;;;;5084293;28;19928;-75
2021/12/13 06:03:32;;;;;;;;;;;9.20;99.90;;;;;;5091205;28;19935;-77
2021/12/13 06:06:04;;;;;;;;;;;9.20;99.90;;;;;;5090989;28;19928;-76
2021/12/13 06:08:38;;;;;;;;;;;9.20;99.90;;;;;;5074186;28;19928;-82
2021/12/13 06:11:07;;;;;;;;;;;9.20;99.90;;;;;;5074357;28;19928;-76
2021/12/13 06:13:39;;;;;;;;;;;9.20;99.90;;;;;;5073619;28;20031;-76
2021/12/13 06:16:05;;;;;;;;;;;9.10;99.90;;;;;;5090877;28;19928;-76
2021/12/13 06:18:35;;;;;;;;;;;9.10;99.90;;;;;;5076208;28;19931;-78
2021/12/13 06:21:00;;;;;;;;;;;9.20;99.90;;;;;;5090498;28;19931;-75
2021/12/13 06:23:29;;;;;;;;;;;9.10;99.90;;;;;;5090477;28;19924;-74
2021/12/13 06:25:56;;;;;;;;;;;9.10;99.90;;;;;;5089698;28;19932;-74
2021/12/13 06:28:23;;;;;;;;;;;9.20;99.90;;;;;;5101244;28;19931;-75
2021/12/13 06:30:54;;;;;;;;;;;9.10;99.90;;;;;;5107042;28;20392;-74
2021/12/13 06:33:20;;;;;;;;;;;9.10;99.90;;;;;;5091189;28;19966;-75
2021/12/13 06:35:45;;;;;;;;;;;9.10;99.90;;;;;;5090886;28;20365;-75
2021/12/13 06:38:20;;;;;;;;;;;9.10;99.90;;;;;;5090461;28;19924;-75
2021/12/13 06:40:47;;;;;;;;;;;9.00;99.90;;;;;;5072995;28;19924;-75
2021/12/13 06:43:24;;;;;;;;;;;9.10;99.90;;;;;;5090116;28;19986;-75
2021/12/13 06:45:50;;;;;;;;;;;9.10;99.90;;;;;;5123691;27;19943;-76
2021/12/13 06:48:16;;;;;;;;;;;9.10;99.90;;;;;;5091334;28;19924;-75
2021/12/13 06:50:41;;;;;;;;;;;9.10;99.90;;;;;;5090892;28;19932;-74
2021/12/13 06:53:12;;;;;;;;;;;9.20;99.90;;;;;;5072810;28;19924;-74
2021/12/13 06:55:38;;;;;;;;;;;9.10;99.90;;;;;;5089384;28;19924;-77
2021/12/13 06:58:11;;;;;;;;;;;9.10;99.90;;;;;;5091362;28;19977;-78
2021/12/13 07:00:37;;;;;;;;;;;9.10;99.90;;;;;;5071333;28;20011;-75
2021/12/13 07:03:05;;;;;;;;;;;9.10;99.90;;;;;;5086579;28;19929;-75
2021/12/13 07:05:31;;;;;;;;;;;9.10;99.90;;;;;;5069695;28;19970;-75
2021/12/13 07:08:00;;;;;;;;;;;9.10;99.90;;;;;;5069400;28;20107;-75
2021/12/13 07:10:27;;;;;;;;;;;9.00;99.90;;;;;;5069894;28;20018;-75
2021/12/13 07:12:55;;;;;;;;;;;9.10;99.90;;;;;;5052566;28;19975;-75
2021/12/13 07:15:26;;;;;;;;;;;9.10;99.90;;;;;;5078862;28;19924;-75
2021/12/13 07:18:04;;;;;;;;;;;9.10;99.90;;;;;;5072697;28;19924;-75
2021/12/13 07:20:35;;;;;;;;;;;9.10;99.90;;;;;;5090041;28;19928;-76
2021/12/13 07:23:01;;;;;;;;;;;9.10;99.90;;;;;;5089494;28;20350;-75
2021/12/13 07:25:33;;;;;;;;;;;9.10;99.90;;;;;;5089679;28;20041;-75
2021/12/13 07:27:59;;;;;;;;;;;9.00;99.90;;;;;;5089442;28;19939;-76
2021/12/13 07:30:26;;;;;;;;;;;9.10;99.90;;;;;;5073013;28;19928;-76
2021/12/13 07:33:01;;;;;;;;;;;9.10;99.90;;;;;;5089667;28;19928;-75
2021/12/13 07:35:47;;;;;;;;;;;9.10;99.90;;;;;;5090034;28;19983;-75
2021/12/13 07:38:16;;;;;;;;;;;9.10;99.90;;;;;;5089797;28;19924;-75
2021/12/13 07:40:41;;;;;;;;;;;9.10;99.90;;;;;;5089383;28;19931;-82
2021/12/13 07:43:16;;;;;;;;;;;9.10;99.90;;;;;;5089076;28;19924;-75
2021/12/13 07:45:45;;;;;;;;;;;9.10;99.90;;;;;;5088812;28;19932;-76
2021/12/13 07:48:13;;;;;;;;;;;9.10;99.90;;;;;;5089804;28;19931;-75
2021/12/13 07:50:40;;;;;;;;;;;9.10;99.90;;;;;;5089647;28;20033;-76
2021/12/13 07:53:08;;;;;;;;;;;9.10;99.90;;;;;;5089071;28;19925;-75
2021/12/13 07:55:39;;;;;;;;;;;9.00;99.90;;;;;;5089671;28;19935;-76
2021/12/13 07:58:06;;;;;;;;;;;9.10;99.90;;;;;;5089303;28;19931;-75
2021/12/13 08:00:36;;;;;;;;;;;9.10;99.90;;;;;;5073104;28;20363;-75
2021/12/13 08:03:07;;;;;;;;;;;9.10;99.90;;;;;;5072311;28;19931;-75
2021/12/13 08:05:38;;;;;;;;;;;9.10;99.90;;;;;;5092205;28;19941;-75
2021/12/13 08:08:07;;;;;;;;;;;9.10;99.90;;;;;;5092825;28;20104;-76
2021/12/13 08:10:33;;;;;;;;;;;9.10;99.90;;;;;;5093247;28;19924;-75
2021/12/13 08:13:01;;;;;;;;;;;9.10;99.90;;;;;;5092896;28;20069;-77
2021/12/13 08:15:29;;;;;;;;;;;9.10;99.90;;;;;;5092997;28;20018;-75
2021/12/13 08:17:55;;;;;;;;;;;9.10;99.90;;;;;;5075628;28;20365;-76
2021/12/13 08:20:23;;;;;;;;;;;9.10;99.90;;;;;;5092905;28;20022;-75
2021/12/13 08:22:50;;;;;;;;;;;9.10;99.90;;;;;;5093739;28;19936;-76
2021/12/13 08:25:18;;;;;;;;;;;9.10;99.90;;;;;;5092863;28;20380;-76
2021/12/13 08:27:50;;;;;;;;;;;9.20;99.90;;;;;;5092902;28;19928;-76
2021/12/13 08:30:21;;;;;;;;;;;9.20;99.90;;;;;;5093901;28;19947;-75
2021/12/13 08:32:54;;;;;;;;;;;9.10;99.90;;;;;;5092354;28;19924;-82
2021/12/13 08:35:20;;;;;;;;;;;9.20;99.90;;;;;;5092884;28;19928;-75
2021/12/13 08:37:52;;;;;;;;;;;9.20;99.90;;;;;;5093019;28;19924;-75
2021/12/13 08:40:18;;;;;;;;;;;9.20;99.90;;;;;;5092599;28;19924;-77
2021/12/13 08:42:44;;;;;;;;;;;9.20;99.90;;;;;;5092574;28;19935;-77
2021/12/13 08:45:24;;;;;;;;;;;9.20;99.90;;;;;;5074744;28;20400;-76
2021/12/13 08:47:52;;;;;;;;;;;9.20;99.90;;;;;;5092092;28;19928;-75
2021/12/13 08:50:20;;;;;;;;;;;9.20;99.90;;;;;;5092610;28;19924;-78
2021/12/13 08:52:47;;;;;;;;;;;9.20;99.90;;;;;;5092565;28;19931;-76
2021/12/13 08:55:12;;;;;;;;;;;9.20;99.90;;;;;;5092078;28;19935;-75
2021/12/13 08:57:51;;;;;;;;;;;9.20;99.90;;;;;;5075154;28;20300;-76
2021/12/13 09:00:17;;;;;;;;;;;9.10;99.90;;;;;;5092271;28;20019;-75
2021/12/13 09:03:03;;;;;;;;;;;9.20;99.90;;;;;;5075168;28;20076;-75
2021/12/13 09:05:30;;;;;;;;;;;9.20;99.90;;;;;;5107776;27;20028;-77
2021/12/13 09:07:59;;;;;;;;;;;9.20;99.90;;;;;;5091880;28;20392;-76
2021/12/13 09:10:58;;;;;;;;;;;9.20;99.90;;;;;;5092047;28;19924;-76
2021/12/13 09:13:36;;;;;;;;;;;9.20;99.90;;;;;;5092063;28;19935;-75
2021/12/13 09:16:02;;;;;;;;;;;9.20;99.90;;;;;;5074067;28;19962;-75
2021/12/13 09:18:28;;;;;;;;;;;9.20;99.90;;;;;;5091883;28;19924;-76
2021/12/13 09:20:55;;;;;;;;;;;9.30;99.90;;;;;;5091652;28;20403;-82
2021/12/13 09:23:35;;;;;;;;;;;9.30;99.90;;;;;;5090006;28;20357;-76
2021/12/13 09:26:09;;;;;;;;;;;9.30;99.90;;;;;;5070841;28;20023;-75
2021/12/13 09:28:55;;;;;;;;;;;9.30;99.90;;;;;;5071279;28;19928;-76
2021/12/13 09:31:26;;;;;;;;;;;9.30;99.90;;;;;;5070733;28;19925;-75
2021/12/13 09:34:07;;;;;;;;;;;9.30;99.90;;;;;;5055006;28;19932;-75
2021/12/13 09:36:35;;;;;;;;;;;9.40;99.90;;;;;;5071293;28;19925;-75
2021/12/13 09:39:05;;;;;;;;;;;9.40;99.90;;;;;;5087320;28;20023;-76
2021/12/13 09:41:33;;;;;;;;;;;9.40;99.90;;;;;;5071218;28;19932;-75
2021/12/13 09:44:02;;;;;;;;;;;9.60;99.90;;;;;;5070814;28;19932;-75
2021/12/13 09:46:34;;;;;;;;;;;9.60;99.90;;;;;;5087805;28;19924;-76
2021/12/13 09:49:01;;;;;;;;;;;9.60;99.90;;;;;;5073856;28;19932;-77
2021/12/13 09:51:29;;;;;;;;;;;9.60;99.90;;;;;;5074405;28;19924;-75
2021/12/13 09:53:57;;;;;;;;;;;9.60;99.90;;;;;;5057778;28;19928;-82
2021/12/13 09:56:24;;;;;;;;;;;9.50;99.90;;;;;;5074169;28;19924;-76
2021/12/13 09:58:51;;;;;;;;;;;9.50;99.90;;;;;;5074306;28;20254;-77
2021/12/13 10:01:26;;;;;;;;;;;9.50;99.90;;;;;;5073746;28;19927;-75
2021/12/13 10:03:57;;;;;;;;;;;9.50;99.90;;;;;;5108496;28;20049;-75
2021/12/13 10:06:43;;;;;;;;;;;9.50;99.90;;;;;;5056707;28;19924;-75
2021/12/13 10:09:19;;;;;;;;;;;9.50;99.90;;;;;;5056935;28;19928;-76
2021/12/13 10:11:57;;;;;;;;;;;9.50;99.90;;;;;;5074190;28;19928;-75
2021/12/13 10:14:26;;;;;;;;;;;9.50;99.90;;;;;;5073516;28;19924;-76
2021/12/13 10:16:55;;;;;;;;;;;9.50;99.90;;;;;;5094324;28;19958;-75
2021/12/13 10:19:27;;;;;;;;;;;9.50;99.90;;;;;;5076762;28;20699;-75
2021/12/13 10:21:53;;;;;;;;;;;9.60;99.90;;;;;;5093996;28;19930;-75
2021/12/13 10:24:22;;;;;;;;;;;9.60;99.90;;;;;;5093685;28;19924;-75
2021/12/13 10:26:49;;;;;;;;;;;9.60;99.90;;;;;;5092942;28;19924;-79
2021/12/13 10:29:15;;;;;;;;;;;9.60;99.90;;;;;;5127514;27;19934;-75
2021/12/13 10:31:45;;;;;;;;;;;9.60;99.90;;;;;;5111114;27;20065;-76
2021/12/13 10:34:13;;;;;;;;;;;9.60;99.90;;;;;;5111468;28;19924;-75
2021/12/13 10:36:41;;;;;;;;;;;9.60;99.90;;;;;;5110860;28;19931;-76
2021/12/13 10:39:10;;;;;;;;;;;9.50;99.90;;;;;;5093240;28;19924;-75
2021/12/13 10:41:41;;;;;;;;;;;9.50;99.90;;;;;;5093919;28;20014;-75
2021/12/13 10:44:11;;;;;;;;;;;9.50;99.90;;;;;;5076197;28;19931;-75
2021/12/13 10:46:39;;;;;;;;;;;9.50;99.90;;;;;;5093313;28;19923;-75
2021/12/13 10:49:15;;;;;;;;;;;9.50;99.90;;;;;;5092566;28;21519;-75
2021/12/13 10:51:42;;;;;;;;;;;9.50;99.90;;;;;;5093741;28;19968;-75
2021/12/13 10:54:10;;;;;;;;;;;9.50;99.90;;;;;;5093207;28;19924;-78
2021/12/13 10:56:41;;;;;;;;;;;9.60;99.90;;;;;;5127847;27;19967;-76
2021/12/13 10:59:09;;;;;;;;;;;9.60;99.90;;;;;;5093236;28;19924;-79
2021/12/13 11:01:36;;;;;;;;;;;9.80;99.90;;;;;;5127702;27;19928;-77
2021/12/13 11:04:06;;;;;;;;;;;9.80;99.90;;;;;;5076827;28;20326;-75
2021/12/13 11:06:33;;;;;;;;;;;9.80;99.90;;;;;;5093395;28;19924;-75
2021/12/13 11:08:59;;;;;;;;;;;9.80;99.90;;;;;;5093699;28;19931;-76
2021/12/13 11:11:35;;;;;;;;;;;9.80;99.90;;;;;;5092919;28;19934;-76
2021/12/13 11:14:02;;;;;;;;;;;9.80;99.90;;;;;;5076656;28;19924;-76
2021/12/13 11:16:48;;;;;;;;;;;9.90;99.90;;;;;;5106888;28;20498;-77
2021/12/13 11:19:16;;;;;;;;;;;9.80;99.90;;;;;;5110173;28;19928;-76
2021/12/13 11:21:43;;;;;;;;;;;9.80;99.90;;;;;;5139088;27;20393;-76
2021/12/13 11:24:12;;;;;;;;;;;9.80;99.90;;;;;;5056280;28;20414;-82
2021/12/13 11:26:39;;;;;;;;;;;9.80;99.90;;;;;;5091047;28;20347;-77
2021/12/13 11:29:06;;;;;;;;;;;9.80;99.90;;;;;;5056603;28;19928;-75
2021/12/13 11:31:33;;;;;;;;;;;9.80;99.90;;;;;;5056451;28;20311;-75
2021/12/13 11:33:59;;;;;;;;;;;9.80;99.90;;;;;;5073178;28;19935;-77
2021/12/13 11:36:39;;;;;;;;;;;9.80;99.90;;;;;;5072671;28;20362;-75
2021/12/13 11:39:34;;;;;;;;;;;9.80;99.90;;;;;;5075455;28;19992;-78
2021/12/13 11:42:19;;;;;;;;;;;9.80;99.90;;;;;;5067809;28;19928;-76
2021/12/13 11:44:56;;;;;;;;;;;9.80;99.90;;;;;;5060000;28;19920;-76
2021/12/13 11:47:40;;;;;;;;;;;9.80;99.90;;;;;;5076344;28;19973;-77
2021/12/13 11:50:25;;;;;;;;;;;9.80;99.90;;;;;;5076881;28;20284;-76
2021/12/13 11:53:19;;;;;;;;;;;9.80;99.90;;;;;;5060015;28;19928;-76
2021/12/13 11:55:57;;;;;;;;;;;9.90;99.90;;;;;;5076685;28;19934;-76
2021/12/13 11:59:01;;;;;;;;;;;10.00;99.90;;;;;;5076342;28;20313;-76
2021/12/13 12:01:30;;;;;;;;;;;10.00;99.90;;;;;;5034489;28;19924;-76
2021/12/13 12:04:07;;;;;;;;;;;10.00;99.90;;;;;;5034731;28;19924;-75
2021/12/13 12:07:04;;;;;;;;;;;9.90;99.90;;;;;;5056832;28;20061;-76
2021/12/13 12:09:48;;;;;;;;;;;10.00;99.90;;;;;;5075504;28;19975;-76
2021/12/13 12:12:17;;;;;;;;;;;10.00;99.90;;;;;;5093763;28;20285;-83
2021/12/13 12:14:43;;;;;;;;;;;10.00;99.90;;;;;;5096007;28;19935;-75
2021/12/13 12:17:08;;;;;;;;;;;9.90;99.90;;;;;;5096519;28;19934;-77
2021/12/13 12:19:35;;;;;;;;;;;9.90;99.90;;;;;;5095888;28;20364;-76
2021/12/13 12:22:06;;;;;;;;;;;9.90;99.90;;;;;;5096053;28;20396;-76
2021/12/13 12:24:34;;;;;;;;;;;10.00;99.90;;;;;;5114213;28;19924;-76
2021/12/13 12:27:05;;;;;;;;;;;9.90;99.90;;;;;;5079108;28;20038;-77
2021/12/13 12:29:34;;;;;;;;;;;10.00;99.90;;;;;;5130025;27;19931;-75
2021/12/13 12:32:02;;;;;;;;;;;9.90;99.90;;;;;;5114340;28;19931;-77
2021/12/13 12:34:28;;;;;;;;;;;9.90;99.90;;;;;;5095714;28;19948;-76
2021/12/13 12:36:57;;;;;;;;;;;10.00;99.90;;;;;;5113512;28;20018;-76
2021/12/13 12:39:38;;;;;;;;;;;10.00;99.90;;;;;;5095665;28;19933;-76
2021/12/13 12:42:06;;;;;;;;;;;10.00;99.90;;;;;;5096158;28;20459;-75
2021/12/13 12:44:37;;;;;;;;;;;10.00;99.90;;;;;;5095465;28;19924;-76
2021/12/13 12:47:03;;;;;;;;;;;10.00;99.90;;;;;;5078708;28;19975;-75
2021/12/13 12:49:29;;;;;;;;;;;10.10;99.90;;;;;;5078114;28;19971;-76
2021/12/13 12:52:00;;;;;;;;;;;10.10;99.90;;;;;;5079126;28;20444;-77
2021/12/13 12:54:27;;;;;;;;;;;10.20;99.90;;;;;;5095354;28;19924;-76
2021/12/13 12:56:54;;;;;;;;;;;10.20;99.90;;;;;;5078754;28;20364;-76
2021/12/13 12:59:22;;;;;;;;;;;10.30;99.90;;;;;;5095458;28;19928;-82
2021/12/13 13:02:04;;;;;;;;;;;10.20;99.90;;;;;;5129830;27;20449;-75
2021/12/13 13:04:57;;;;;;;;;;;10.20;99.90;;;;;;5095040;28;19927;-75
2021/12/13 13:07:28;;;;;;;;;;;10.30;99.90;;;;;;5091602;28;20011;-76
2021/12/13 13:09:58;;;;;;;;;;;10.30;99.90;;;;;;5113701;28;19973;-77
2021/12/13 13:12:30;;;;;;;;;;;10.30;99.90;;;;;;5094579;28;20296;-76
2021/12/13 13:15:01;;;;;;;;;;;10.20;99.90;;;;;;5096424;28;19931;-76
2021/12/13 13:17:28;;;;;;;;;;;10.20;99.90;;;;;;5111975;28;19924;-75
2021/12/13 13:19:55;;;;;;;;;;;10.20;99.90;;;;;;5095521;28;19928;-77
2021/12/13 13:22:23;;;;;;;;;;;10.20;99.90;;;;;;5104867;28;19935;-83
2021/12/13 13:24:50;;;;;;;;;;;10.20;99.90;;;;;;5078067;28;19992;-78
2021/12/13 13:27:17;;;;;;;;;;;10.20;99.90;;;;;;5078671;28;20275;-76
2021/12/13 13:29:42;;;;;;;;;;;10.10;99.90;;;;;;5094475;28;19928;-75
2021/12/13 13:32:10;;;;;;;;;;;10.10;99.90;;;;;;5095105;28;19962;-78
2021/12/13 13:34:41;;;;;;;;;;;10.10;99.90;;;;;;5094605;28;19924;-75
2021/12/13 13:37:17;;;;;;;;;;;10.00;99.90;;;;;;5078054;28;19923;-75
2021/12/13 13:39:45;;;;;;;;;;;10.00;99.90;;;;;;5094452;28;20681;-75
2021/12/13 13:42:22;;;;;;;;;;;10.00;99.90;;;;;;5094718;28;19924;-75
2021/12/13 13:44:49;;;;;;;;;;;10.00;99.90;;;;;;5076544;28;19985;-76
2021/12/13 13:47:19;;;;;;;;;;;10.00;99.90;;;;;;5077510;28;19928;-77
2021/12/13 13:49:46;;;;;;;;;;;10.00;99.90;;;;;;5094284;28;20357;-76
2021/12/13 13:52:11;;;;;;;;;;;10.00;99.90;;;;;;5094862;28;19970;-75
2021/12/13 13:54:37;;;;;;;;;;;10.00;99.90;;;;;;5094490;28;19990;-76
2021/12/13 13:57:02;;;;;;;;;;;9.90;99.90;;;;;;5094383;28;19959;-75
2021/12/13 13:59:28;;;;;;;;;;;10.00;99.90;;;;;;5094061;28;19928;-78
2021/12/13 14:02:04;;;;;;;;;;;9.90;99.90;;;;;;5076837;28;19928;-75
2021/12/13 14:04:34;;;;;;;;;;;9.90;99.90;;;;;;5076853;28;19986;-76
2021/12/13 14:07:02;;;;;;;;;;;10.00;99.90;;;;;;5077431;28;20018;-77
2021/12/13 14:09:34;;;;;;;;;;;10.00;99.90;;;;;;5093899;28;19924;-84
2021/12/13 14:12:11;;;;;;;;;;;10.00;99.90;;;;;;5112383;28;19931;-80
2021/12/13 14:14:39;;;;;;;;;;;10.00;99.90;;;;;;5093760;28;19923;-76
2021/12/13 14:17:05;;;;;;;;;;;9.90;99.90;;;;;;5094103;28;20384;-75
2021/12/13 14:19:33;;;;;;;;;;;9.90;99.90;;;;;;5076911;28;19974;-76
2021/12/13 14:21:59;;;;;;;;;;;9.90;99.90;;;;;;5094301;28;19979;-76
2021/12/13 14:24:29;;;;;;;;;;;9.90;99.90;;;;;;5060814;28;19982;-77
2021/12/13 14:27:09;;;;;;;;;;;9.90;99.90;;;;;;5127993;27;19939;-76
2021/12/13 14:29:35;;;;;;;;;;;9.90;99.90;;;;;;5110665;28;19927;-76
2021/12/13 14:32:01;;;;;;;;;;;9.80;99.90;;;;;;5110921;28;20388;-76
2021/12/13 14:34:26;;;;;;;;;;;9.80;99.90;;;;;;5093734;28;20426;-76
2021/12/13 14:36:56;;;;;;;;;;;9.80;99.90;;;;;;5076541;28;19982;-76
2021/12/13 14:39:28;;;;;;;;;;;9.70;99.90;;;;;;5077203;28;19931;-78
2021/12/13 14:42:06;;;;;;;;;;;9.70;99.90;;;;;;5093521;28;19928;-78
2021/12/13 14:44:34;;;;;;;;;;;9.70;99.90;;;;;;5076755;28;19982;-82
2021/12/13 14:47:02;;;;;;;;;;;9.60;99.90;;;;;;5127481;27;20284;-76
2021/12/13 14:49:29;;;;;;;;;;;9.60;99.90;;;;;;5094044;28;19924;-76